Flight Track Log - Related Links

Times and Time Zones

All times are in EDT time to prevent confusion due to time zone crossing. See the SWA2058 flight status page for this flight to view local times or setup timezone preferences in your user account.

Time Position Orientation Groundspeed Altitude Reporting Facility
EDT Latitude Longitude Course Direction KTS MPH feet Rate Location/Type
Wed 05:13:07 PM 39.9000 -104.7167 298° West 186 214 6,900  Level Denver TRACON
Wed 05:14:07 PM 39.9333 -104.8000 306° West 256 295 8,200 1,700 Climbing Denver TRACON
Wed 05:15:07 PM 39.9667 -104.9000 294° West 307 353 10,300 2,513 Climbing Denver TRACON
Wed 05:16:04 PM 39.9878 -104.9928 287° West 306 352 13,100 2,521 Climbing Denver Center
Wed 05:17:06 PM 40.0064 -105.1114 282° West 330 380 15,300 2,274 Climbing Denver Center
Wed 05:18:08 PM 40.0033 -105.2536 268° West 360 414 17,800 2,710 Climbing Denver Center
Wed 05:19:10 PM 39.9850 -105.3836 260° West 367 422 20,900 2,592 Climbing Denver Center
Wed 05:20:13 PM 39.9764 -105.5267 266° West 361 415 23,200 1,920 Climbing Denver Center
Wed 05:21:15 PM 39.9708 -105.6664 267° West 380 437 24,900 1,597 Climbing Denver Center
Wed 05:22:17 PM 39.9597 -105.8108 264° West 397 457 26,500 1,935 Climbing Denver Center
Wed 05:23:19 PM 39.9206 -105.9478 250° West 403 464 28,900 2,177 Climbing Denver Center
Wed 05:24:21 PM 39.8789 -106.0775 247° West 396 456 31,000 2,032 Climbing Denver Center
Wed 05:25:23 PM 39.8356 -106.2303 250° West 382 440 33,100 1,500 Climbing Denver Center
Wed 05:26:25 PM 39.7967 -106.3606 249° West 384 442 34,100 774 Climbing Denver Center
Wed 05:27:27 PM 39.7533 -106.4992 248° West 409 471 34,700 823 Climbing Denver Center
Wed 05:28:29 PM 39.7128 -106.6275 248° West 423 487 35,800 1,488 Climbing Denver Center
Wed 05:29:32 PM 39.6561 -106.8000 247° West 424 488 37,800 1,056 Climbing Denver Center
Wed 05:30:34 PM 39.6167 -106.9317 249° West 414 476 38,000 97 Climbing Denver Center
Wed 05:31:36 PM 39.5706 -107.0594 245° Southwest 413 475 38,000  Level Denver Center
Wed 05:32:38 PM 39.5175 -107.2208 247° West 404 465 38,000  Level Denver Center
Wed 05:33:40 PM 39.4739 -107.3536 247° West 405 466 38,000  Level Denver Center
Wed 05:34:42 PM 39.4300 -107.4864 247° West 405 466 38,000  Level Denver Center
Wed 05:35:44 PM 39.3850 -107.6236 247° West 406 467 38,000  Level Denver Center
Wed 05:36:46 PM 39.3403 -107.7564 247° West 404 465 38,000  Level Denver Center
Wed 05:37:49 PM 39.2881 -107.9103 246° West 404 465 38,000  Level Denver Center
Wed 05:38:51 PM 39.2442 -108.0411 247° West 399 459 38,000  Level Denver Center
Wed 05:39:53 PM 39.1961 -108.1844 247° West 402 463 38,000  Level Denver Center
Wed 05:40:55 PM 39.1522 -108.3153 247° West 401 461 38,000  Level Denver Center
Wed 05:41:57 PM 39.1061 -108.4481 246° West 423 487 38,000  Level Denver Center
Wed 05:42:59 PM 39.0578 -108.5908 246° West 412 474 38,000  Level Denver Center
Wed 05:44:01 PM 39.0086 -108.7294 246° West 402 463 38,000  Level Denver Center
Wed 05:45:03 PM 38.9633 -108.8583 246° West 399 459 38,000  Level Denver Center
Wed 05:46:05 PM 38.9147 -108.9978 246° West 399 459 38,000  Level Denver Center
Wed 05:47:08 PM 38.8703 -109.1253 246° West 396 456 38,000  Level Denver Center
Wed 05:48:10 PM 38.8208 -109.2642 245° Southwest 397 457 38,000  Level Denver Center
Wed 05:49:12 PM 38.7747 -109.3928 245° Southwest 396 456 38,000  Level Denver Center
Wed 05:50:14 PM 38.7264 -109.5297 246° West 396 456 38,000  Level Denver Center
Wed 05:51:16 PM 38.6872 -109.6361 245° Southwest 389 448 38,000  Level Denver Center
Wed 05:52:18 PM 38.6317 -109.7883 245° Southwest 390 449 38,000  Level Denver Center
Wed 05:53:20 PM 38.5756 -109.9086 239° Southwest 392 451 38,000  Level Denver Center
Wed 05:54:22 PM 38.5258 -110.0333 243° Southwest 392 451 38,000  Level Denver Center
Wed 05:55:13 PM 38.4906 -110.1358 246° West 396 456 38,000  Level Salt Lake Center
Wed 05:56:15 PM 38.4456 -110.2644 246° West 396 456 38,000  Level Salt Lake Center
Wed 05:57:17 PM 38.3892 -110.4183 245° Southwest 396 456 38,000  Level Salt Lake Center
Wed 05:58:19 PM 38.3439 -110.5464 246° West 396 456 38,000 -581 Level Salt Lake Center
Wed 05:59:21 PM 38.2978 -110.6714 245° Southwest 395 455 36,800 -1,016 Descending Salt Lake Center
Wed 06:00:23 PM 38.2525 -110.7964 245° Southwest 391 450 35,900 -919 Descending Salt Lake Center
Wed 06:01:25 PM 38.2050 -110.9250 245° Southwest 395 455 34,900 -968 Descending Salt Lake Center
Wed 06:02:27 PM 38.1608 -111.0522 246° West 397 457 33,900 -1,016 Descending Salt Lake Center
Wed 06:03:29 PM 38.1047 -111.2014 244° Southwest 396 456 32,800 -912 Descending Salt Lake Center
Wed 06:04:32 PM 38.0603 -111.3289 246° West 396 456 32,000 -384 Descending Salt Lake Center
Wed 06:05:34 PM 38.0139 -111.4522 245° Southwest 394 453 32,000  Level Salt Lake Center
Wed 06:06:36 PM 37.9661 -111.5711 243° Southwest 384 442 32,000  Level Salt Lake Center
Wed 06:07:38 PM 37.9225 -111.6933 246° West 380 437 32,000  Level Salt Lake Center
Wed 06:08:40 PM 37.8761 -111.8131 244° Southwest 380 437 32,000  Level Salt Lake Center
Wed 06:09:42 PM 37.8222 -111.9569 245° Southwest 380 437 32,000  Level Salt Lake Center
Wed 06:10:44 PM 37.7772 -112.0772 245° Southwest 380 437 32,000  Level Salt Lake Center
Wed 06:11:46 PM 37.7328 -112.1925 244° Southwest 370 426 32,000  Level Salt Lake Center
Wed 06:12:48 PM 37.6875 -112.2892 239° Southwest 332 382 32,000  Level Salt Lake Center
Wed 06:13:50 PM 37.6267 -112.3861 232° Southwest 340 391 32,000  Level Salt Lake Center
Wed 06:14:52 PM 37.5592 -112.4958 232° Southwest 377 434 32,000  Level Salt Lake Center
Wed 06:15:55 PM 37.4894 -112.6092 232° Southwest 396 456 32,000  Level Salt Lake Center
Wed 06:16:56 PM 37.4064 -112.7450 232° Southwest 398 458 32,000 -293 Level Salt Lake Center
Wed 06:17:58 PM 37.3381 -112.8581 233° Southwest 399 459 31,400 -774 Descending Salt Lake Center
Wed 06:19:00 PM 37.2717 -112.9669 233° Southwest 395 455 30,400 -919 Descending Salt Lake Center
Wed 06:20:02 PM 37.2031 -113.0775 232° Southwest 395 455 29,500 -919 Descending Salt Lake Center
Wed 06:21:04 PM 37.1325 -113.1931 233° Southwest 408 470 28,500 -968 Descending Salt Lake Center
Wed 06:22:06 PM 37.0628 -113.3050 232° Southwest 409 471 27,500 -960 Descending Salt Lake Center
Wed 06:23:09 PM 36.9942 -113.4150 232° Southwest 406 467 26,500 -1,056 Descending Salt Lake Center
Wed 06:24:11 PM 36.9164 -113.5492 234° Southwest 402 463 25,300 -1,065 Descending Salt Lake Center
Wed 06:25:13 PM 36.8536 -113.6625 235° Southwest 400 460 24,300 -968 Descending Salt Lake Center
Wed 06:26:15 PM 36.7931 -113.7731 236° Southwest 392 451 23,300 -968 Descending Salt Lake Center
Wed 06:27:17 PM 36.7328 -113.8808 235° Southwest 383 441 22,300 -1,427 Descending Salt Lake Center
Wed 06:28:38 PM 36.6481 -114.0286 234° Southwest 377 434 19,900 -1,833 Descending Los Angeles Center
Wed 06:29:41 PM 36.5914 -114.1314 236° Southwest 365 420 17,900 -1,872 Descending Los Angeles Center
Wed 06:30:43 PM 36.5353 -114.2294 235° Southwest 355 409 16,000 -2,019 Descending Los Angeles Center
Wed 06:31:28 PM 36.4933 -114.3147 239° Southwest 344 396 14,300 -1,839 Descending Los Angeles Center
Wed 06:31:45 PM 36.4825 -114.3231 212° Southwest 346 398 14,100 -1,595 Descending Los Angeles Center
Wed 06:32:47 PM 36.4197 -114.4350 235° Southwest 334 384 12,200 -1,556 Descending Los Angeles Center
Wed 06:33:06 PM 36.4078 -114.4647 243° Southwest 324 373 12,000 -429 Descending Los Angeles Center
Wed 06:33:43 PM 36.3642 -114.4928 207° Southwest 294 338 11,800 -692 Descending Los Angeles Center
Wed 06:34:50 PM 36.2711 -114.5217 194° South 295 339 10,800 -898 Descending Los Angeles Center
Wed 06:35:50 PM 36.1897 -114.5442 193° South 300 345 9,900 -619 Descending Los Angeles Center
Wed 06:36:56 PM 36.1367 -114.6003 221° Southwest 282 325 9,500 -563 Descending Los Angeles Center
Wed 06:37:58 PM 36.0997 -114.6717 237° Southwest 255 293 8,700 -872 Descending Los Angeles Center
Wed 06:38:53 PM 36.0742 -114.7456 247° West 225 259 7,800 -982 Descending Los Angeles Center
Wed 06:39:48 PM 36.0739 -114.8122 270° West 196 226 6,900 -957 Descending Los Angeles Center
Wed 06:40:02 PM 36.0725 -114.8253 263° West 212 244 6,700 -779 Descending Los Angeles Center
Wed 06:41:05 PM 36.0731 -114.8889 271° West 195 224 5,900 -1,053 Descending Los Angeles Center
Wed 06:41:56 PM 36.0733 -114.9481 270° West 183 211 4,700 -1,258 Descending Los Angeles Center
Wed 06:42:07 PM 36.0736 -114.9578 272° West 190 219 4,600 -1,000 Descending Los Angeles Center
Wed 06:42:50 PM 36.0733 -115.0067 270° West 182 209 3,800 -968 Descending Los Angeles Center
Wed 06:43:09 PM 36.0739 -115.0247 272° West 184 212 3,600 -873 Descending Los Angeles Center
Wed 06:43:45 PM 36.0742 -115.0597 271° West 173 199 3,000 -871 Descending Los Angeles Center
Wed 06:44:11 PM 36.0736 -115.0797 268° West 163 188 2,700 -627 Descending Los Angeles Center
Wed 06:44:52 PM 36.0733 -115.1158 269° West 144 166 2,300 -677 Descending Los Angeles Center
Wed 06:45:13 PM 36.0731 -115.1297 269° West 152 175 2,000 -857 Descending Los Angeles Center
Wed 06:47:00 PM 36.0667 -115.1500 219° Southwest  Level FlightAware Approximate

Login

Don't have an account? Register now (free) for customized features, flight alerts, and more!